sensor_id;sensor_type;location;lat;lon;timestamp;P1;durP1;ratioP1;P2;durP2;ratioP2
50417;SDS011;36346;48.280;14.292;2023-06-24T00:02:04;1.37;;;1.37;;
50417;SDS011;36346;48.280;14.292;2023-06-24T00:04:32;1.60;;;1.60;;
50417;SDS011;36346;48.280;14.292;2023-06-24T00:07:00;1.36;;;1.36;;
50417;SDS011;36346;48.280;14.292;2023-06-24T00:09:29;1.38;;;1.38;;
50417;SDS011;36346;48.280;14.292;2023-06-24T00:11:58;1.39;;;1.39;;
50417;SDS011;36346;48.280;14.292;2023-06-24T00:14:26;1.60;;;1.60;;
50417;SDS011;36346;48.280;14.292;2023-06-24T00:16:55;1.28;;;1.28;;
50417;SDS011;36346;48.280;14.292;2023-06-24T00:19:24;1.38;;;1.38;;
50417;SDS011;36346;48.280;14.292;2023-06-24T00:21:54;1.26;;;1.26;;
50417;SDS011;36346;48.280;14.292;2023-06-24T00:24:22;1.33;;;1.33;;
50417;SDS011;36346;48.280;14.292;2023-06-24T00:26:54;1.30;;;1.30;;
50417;SDS011;36346;48.280;14.292;2023-06-24T00:29:22;1.26;;;1.26;;
50417;SDS011;36346;48.280;14.292;2023-06-24T00:31:50;1.32;;;1.32;;
50417;SDS011;36346;48.280;14.292;2023-06-24T00:34:18;1.42;;;1.42;;
50417;SDS011;36346;48.280;14.292;2023-06-24T00:36:52;1.44;;;1.44;;
50417;SDS011;36346;48.280;14.292;2023-06-24T00:39:20;1.46;;;1.46;;
50417;SDS011;36346;48.280;14.292;2023-06-24T00:41:48;1.36;;;1.36;;
50417;SDS011;36346;48.280;14.292;2023-06-24T00:44:16;1.27;;;1.27;;
50417;SDS011;36346;48.280;14.292;2023-06-24T00:46:44;1.42;;;1.42;;
50417;SDS011;36346;48.280;14.292;2023-06-24T00:49:12;1.38;;;1.38;;
50417;SDS011;36346;48.280;14.292;2023-06-24T00:51:42;1.52;;;1.52;;
50417;SDS011;36346;48.280;14.292;2023-06-24T00:54:16;1.35;;;1.35;;
50417;SDS011;36346;48.280;14.292;2023-06-24T00:56:45;1.33;;;1.33;;
50417;SDS011;36346;48.280;14.292;2023-06-24T00:59:15;1.39;;;1.39;;
50417;SDS011;36346;48.280;14.292;2023-06-24T01:01:44;1.36;;;1.36;;
50417;SDS011;36346;48.280;14.292;2023-06-24T01:04:13;1.42;;;1.42;;
50417;SDS011;36346;48.280;14.292;2023-06-24T01:06:41;1.51;;;1.51;;
50417;SDS011;36346;48.280;14.292;2023-06-24T01:09:11;1.48;;;1.48;;
50417;SDS011;36346;48.280;14.292;2023-06-24T01:11:40;1.62;;;1.62;;
50417;SDS011;36346;48.280;14.292;2023-06-24T01:14:08;1.61;;;1.61;;
50417;SDS011;36346;48.280;14.292;2023-06-24T01:30:38;1.84;;;1.84;;
50417;SDS011;36346;48.280;14.292;2023-06-24T01:33:36;1.85;;;1.85;;
50417;SDS011;36346;48.280;14.292;2023-06-24T01:36:11;1.77;;;1.77;;
50417;SDS011;36346;48.280;14.292;2023-06-24T01:38:47;1.66;;;1.66;;
50417;SDS011;36346;48.280;14.292;2023-06-24T01:41:22;1.49;;;1.49;;
50417;SDS011;36346;48.280;14.292;2023-06-24T01:43:52;1.73;;;1.73;;
50417;SDS011;36346;48.280;14.292;2023-06-24T01:46:22;1.74;;;1.74;;
50417;SDS011;36346;48.280;14.292;2023-06-24T01:48:54;1.71;;;1.71;;
50417;SDS011;36346;48.280;14.292;2023-06-24T01:51:23;1.83;;;1.83;;
50417;SDS011;36346;48.280;14.292;2023-06-24T01:53:54;1.60;;;1.60;;
50417;SDS011;36346;48.280;14.292;2023-06-24T01:56:27;1.69;;;1.69;;
50417;SDS011;36346;48.280;14.292;2023-06-24T01:58:57;1.73;;;1.73;;
50417;SDS011;36346;48.280;14.292;2023-06-24T02:01:28;1.69;;;1.69;;
50417;SDS011;36346;48.280;14.292;2023-06-24T02:04:00;1.74;;;1.74;;
50417;SDS011;36346;48.280;14.292;2023-06-24T02:06:30;1.88;;;1.88;;
50417;SDS011;36346;48.280;14.292;2023-06-24T02:08:59;1.94;;;1.94;;
50417;SDS011;36346;48.280;14.292;2023-06-24T02:11:31;2.05;;;2.05;;
50417;SDS011;36346;48.280;14.292;2023-06-24T02:14:02;2.11;;;2.11;;
50417;SDS011;36346;48.280;14.292;2023-06-24T02:16:32;1.99;;;1.99;;
50417;SDS011;36346;48.280;14.292;2023-06-24T02:19:02;2.10;;;2.10;;
50417;SDS011;36346;48.280;14.292;2023-06-24T02:21:32;2.20;;;2.20;;
50417;SDS011;36346;48.280;14.292;2023-06-24T02:24:02;2.40;;;2.40;;
50417;SDS011;36346;48.280;14.292;2023-06-24T02:26:32;2.06;;;2.06;;
50417;SDS011;36346;48.280;14.292;2023-06-24T02:29:05;2.32;;;2.32;;
50417;SDS011;36346;48.280;14.292;2023-06-24T02:31:35;2.46;;;2.46;;
50417;SDS011;36346;48.280;14.292;2023-06-24T02:34:04;2.65;;;2.65;;
50417;SDS011;36346;48.280;14.292;2023-06-24T02:36:32;2.56;;;2.56;;
50417;SDS011;36346;48.280;14.292;2023-06-24T02:39:01;2.54;;;2.54;;
50417;SDS011;36346;48.280;14.292;2023-06-24T02:41:29;2.71;;;2.71;;
50417;SDS011;36346;48.280;14.292;2023-06-24T02:43:57;2.67;;;2.67;;
50417;SDS011;36346;48.280;14.292;2023-06-24T02:46:25;2.74;;;2.74;;
50417;SDS011;36346;48.280;14.292;2023-06-24T02:48:57;2.84;;;2.84;;
50417;SDS011;36346;48.280;14.292;2023-06-24T02:51:26;2.86;;;2.86;;
50417;SDS011;36346;48.280;14.292;2023-06-24T02:53:54;3.05;;;3.05;;
50417;SDS011;36346;48.280;14.292;2023-06-24T02:56:45;3.11;;;3.11;;
50417;SDS011;36346;48.280;14.292;2023-06-24T02:59:20;3.08;;;3.08;;
50417;SDS011;36346;48.280;14.292;2023-06-24T03:01:51;3.21;;;3.21;;
50417;SDS011;36346;48.280;14.292;2023-06-24T03:04:19;3.36;;;3.36;;
50417;SDS011;36346;48.280;14.292;2023-06-24T03:06:48;3.56;;;3.56;;
50417;SDS011;36346;48.280;14.292;2023-06-24T03:09:17;3.36;;;3.36;;
50417;SDS011;36346;48.280;14.292;2023-06-24T03:11:47;3.53;;;3.53;;
50417;SDS011;36346;48.280;14.292;2023-06-24T03:14:22;3.49;;;3.49;;
50417;SDS011;36346;48.280;14.292;2023-06-24T03:16:50;3.53;;;3.53;;
50417;SDS011;36346;48.280;14.292;2023-06-24T03:19:20;3.62;;;3.62;;
50417;SDS011;36346;48.280;14.292;2023-06-24T03:21:49;3.52;;;3.52;;
50417;SDS011;36346;48.280;14.292;2023-06-24T03:24:17;3.91;;;3.91;;
50417;SDS011;36346;48.280;14.292;2023-06-24T03:26:48;3.77;;;3.77;;
50417;SDS011;36346;48.280;14.292;2023-06-24T03:29:27;3.62;;;3.62;;
50417;SDS011;36346;48.280;14.292;2023-06-24T03:32:22;3.38;;;3.38;;
50417;SDS011;36346;48.280;14.292;2023-06-24T03:34:50;3.63;;;3.63;;
50417;SDS011;36346;48.280;14.292;2023-06-24T03:37:18;3.58;;;3.58;;
50417;SDS011;36346;48.280;14.292;2023-06-24T03:39:46;3.70;;;3.70;;
50417;SDS011;36346;48.280;14.292;2023-06-24T03:42:14;3.48;;;3.48;;
50417;SDS011;36346;48.280;14.292;2023-06-24T03:44:43;3.76;;;3.76;;
50417;SDS011;36346;48.280;14.292;2023-06-24T03:47:12;4.03;;;4.03;;
50417;SDS011;36346;48.280;14.292;2023-06-24T03:49:41;4.02;;;4.02;;
50417;SDS011;36346;48.280;14.292;2023-06-24T03:52:10;3.94;;;3.94;;
50417;SDS011;36346;48.280;14.292;2023-06-24T03:54:38;4.09;;;4.09;;
50417;SDS011;36346;48.280;14.292;2023-06-24T03:57:07;4.18;;;4.18;;
50417;SDS011;36346;48.280;14.292;2023-06-24T03:59:36;3.93;;;3.93;;
50417;SDS011;36346;48.280;14.292;2023-06-24T04:02:04;3.70;;;3.70;;
50417;SDS011;36346;48.280;14.292;2023-06-24T04:04:36;4.00;;;4.00;;
50417;SDS011;36346;48.280;14.292;2023-06-24T04:07:04;4.30;;;4.30;;
50417;SDS011;36346;48.280;14.292;2023-06-24T04:09:34;3.78;;;3.78;;
50417;SDS011;36346;48.280;14.292;2023-06-24T04:12:03;4.00;;;4.00;;
50417;SDS011;36346;48.280;14.292;2023-06-24T04:14:34;4.03;;;4.03;;
50417;SDS011;36346;48.280;14.292;2023-06-24T04:17:02;4.39;;;4.39;;
50417;SDS011;36346;48.280;14.292;2023-06-24T04:19:30;4.36;;;4.36;;
50417;SDS011;36346;48.280;14.292;2023-06-24T04:21:58;4.72;;;4.72;;
50417;SDS011;36346;48.280;14.292;2023-06-24T04:24:26;4.38;;;4.38;;
50417;SDS011;36346;48.280;14.292;2023-06-24T04:26:55;4.53;;;4.53;;
50417;SDS011;36346;48.280;14.292;2023-06-24T04:29:23;4.36;;;4.36;;
50417;SDS011;36346;48.280;14.292;2023-06-24T04:31:51;4.84;;;4.84;;
50417;SDS011;36346;48.280;14.292;2023-06-24T04:34:19;5.12;;;5.11;;
50417;SDS011;36346;48.280;14.292;2023-06-24T04:36:48;4.65;;;4.61;;
50417;SDS011;36346;48.280;14.292;2023-06-24T04:39:16;4.71;;;4.71;;
50417;SDS011;36346;48.280;14.292;2023-06-24T04:41:44;5.05;;;5.05;;
50417;SDS011;36346;48.280;14.292;2023-06-24T04:44:13;4.88;;;4.88;;
50417;SDS011;36346;48.280;14.292;2023-06-24T04:46:41;5.07;;;5.07;;
50417;SDS011;36346;48.280;14.292;2023-06-24T04:49:09;4.65;;;4.65;;
50417;SDS011;36346;48.280;14.292;2023-06-24T04:51:37;4.80;;;4.80;;
50417;SDS011;36346;48.280;14.292;2023-06-24T04:54:08;5.41;;;5.41;;
50417;SDS011;36346;48.280;14.292;2023-06-24T04:56:36;5.40;;;5.40;;
50417;SDS011;36346;48.280;14.292;2023-06-24T04:59:04;5.04;;;5.04;;
50417;SDS011;36346;48.280;14.292;2023-06-24T05:01:32;6.05;;;6.05;;
50417;SDS011;36346;48.280;14.292;2023-06-24T05:04:00;8.44;;;8.44;;
50417;SDS011;36346;48.280;14.292;2023-06-24T05:06:28;8.71;;;8.71;;
50417;SDS011;36346;48.280;14.292;2023-06-24T05:08:56;8.44;;;8.44;;
50417;SDS011;36346;48.280;14.292;2023-06-24T05:11:24;6.44;;;6.44;;
50417;SDS011;36346;48.280;14.292;2023-06-24T05:13:52;6.45;;;6.45;;
50417;SDS011;36346;48.280;14.292;2023-06-24T05:16:20;5.74;;;5.74;;
50417;SDS011;36346;48.280;14.292;2023-06-24T05:18:48;5.50;;;5.50;;
50417;SDS011;36346;48.280;14.292;2023-06-24T05:21:16;5.37;;;5.37;;
50417;SDS011;36346;48.280;14.292;2023-06-24T05:23:44;5.00;;;5.00;;
50417;SDS011;36346;48.280;14.292;2023-06-24T05:26:11;4.67;;;4.67;;
50417;SDS011;36346;48.280;14.292;2023-06-24T05:28:39;4.07;;;4.07;;
50417;SDS011;36346;48.280;14.292;2023-06-24T05:31:07;4.37;;;4.37;;
50417;SDS011;36346;48.280;14.292;2023-06-24T05:33:35;4.43;;;4.43;;
50417;SDS011;36346;48.280;14.292;2023-06-24T05:36:03;4.83;;;4.83;;
50417;SDS011;36346;48.280;14.292;2023-06-24T05:38:31;5.06;;;5.06;;
50417;SDS011;36346;48.280;14.292;2023-06-24T05:40:59;4.66;;;4.66;;
50417;SDS011;36346;48.280;14.292;2023-06-24T05:43:30;4.83;;;4.83;;
50417;SDS011;36346;48.280;14.292;2023-06-24T05:45:57;4.71;;;4.71;;
50417;SDS011;36346;48.280;14.292;2023-06-24T05:48:26;4.95;;;4.95;;
50417;SDS011;36346;48.280;14.292;2023-06-24T05:50:53;4.75;;;4.75;;
50417;SDS011;36346;48.280;14.292;2023-06-24T05:53:21;4.96;;;4.96;;
50417;SDS011;36346;48.280;14.292;2023-06-24T05:55:49;4.97;;;4.97;;
50417;SDS011;36346;48.280;14.292;2023-06-24T05:58:17;4.94;;;4.94;;
50417;SDS011;36346;48.280;14.292;2023-06-24T06:00:45;4.62;;;4.62;;
50417;SDS011;36346;48.280;14.292;2023-06-24T06:03:13;4.69;;;4.69;;
50417;SDS011;36346;48.280;14.292;2023-06-24T06:05:41;4.98;;;4.98;;
50417;SDS011;36346;48.280;14.292;2023-06-24T06:08:09;4.95;;;4.95;;
50417;SDS011;36346;48.280;14.292;2023-06-24T06:10:37;5.26;;;5.26;;
50417;SDS011;36346;48.280;14.292;2023-06-24T06:13:05;5.13;;;5.13;;
50417;SDS011;36346;48.280;14.292;2023-06-24T06:15:33;5.25;;;5.25;;
50417;SDS011;36346;48.280;14.292;2023-06-24T06:18:01;5.51;;;5.51;;
50417;SDS011;36346;48.280;14.292;2023-06-24T06:20:29;5.46;;;5.46;;
50417;SDS011;36346;48.280;14.292;2023-06-24T06:22:58;6.00;;;6.00;;
50417;SDS011;36346;48.280;14.292;2023-06-24T06:25:26;6.40;;;6.40;;
50417;SDS011;36346;48.280;14.292;2023-06-24T06:27:54;6.24;;;6.24;;
50417;SDS011;36346;48.280;14.292;2023-06-24T06:30:22;6.11;;;6.11;;
50417;SDS011;36346;48.280;14.292;2023-06-24T06:32:50;6.16;;;6.16;;
50417;SDS011;36346;48.280;14.292;2023-06-24T06:35:18;6.29;;;6.29;;
50417;SDS011;36346;48.280;14.292;2023-06-24T06:37:45;6.03;;;6.03;;
50417;SDS011;36346;48.280;14.292;2023-06-24T06:40:23;6.06;;;6.06;;
50417;SDS011;36346;48.280;14.292;2023-06-24T06:42:51;6.15;;;6.15;;
50417;SDS011;36346;48.280;14.292;2023-06-24T06:45:19;6.27;;;6.27;;
50417;SDS011;36346;48.280;14.292;2023-06-24T06:47:49;6.51;;;6.51;;
50417;SDS011;36346;48.280;14.292;2023-06-24T06:50:18;6.64;;;6.64;;
50417;SDS011;36346;48.280;14.292;2023-06-24T06:52:46;6.52;;;6.47;;
50417;SDS011;36346;48.280;14.292;2023-06-24T06:55:13;6.28;;;6.28;;
50417;SDS011;36346;48.280;14.292;2023-06-24T06:57:41;6.64;;;6.64;;
50417;SDS011;36346;48.280;14.292;2023-06-24T07:00:09;6.94;;;6.94;;
50417;SDS011;36346;48.280;14.292;2023-06-24T07:02:38;6.51;;;6.51;;
50417;SDS011;36346;48.280;14.292;2023-06-24T07:05:06;6.89;;;6.89;;
50417;SDS011;36346;48.280;14.292;2023-06-24T07:07:34;6.90;;;6.90;;
50417;SDS011;36346;48.280;14.292;2023-06-24T07:10:02;6.89;;;6.89;;
50417;SDS011;36346;48.280;14.292;2023-06-24T07:12:30;6.96;;;6.96;;
50417;SDS011;36346;48.280;14.292;2023-06-24T07:14:58;7.04;;;7.04;;
50417;SDS011;36346;48.280;14.292;2023-06-24T07:17:26;7.32;;;7.32;;
50417;SDS011;36346;48.280;14.292;2023-06-24T07:19:54;7.53;;;7.53;;
50417;SDS011;36346;48.280;14.292;2023-06-24T07:22:22;9.67;;;9.59;;
50417;SDS011;36346;48.280;14.292;2023-06-24T07:24:50;7.96;;;7.96;;
50417;SDS011;36346;48.280;14.292;2023-06-24T07:27:18;7.04;;;7.04;;
50417;SDS011;36346;48.280;14.292;2023-06-24T07:29:46;7.61;;;7.61;;
50417;SDS011;36346;48.280;14.292;2023-06-24T07:32:14;7.83;;;7.83;;
50417;SDS011;36346;48.280;14.292;2023-06-24T07:34:41;7.33;;;7.33;;
50417;SDS011;36346;48.280;14.292;2023-06-24T07:37:09;7.08;;;7.08;;
50417;SDS011;36346;48.280;14.292;2023-06-24T07:39:50;7.18;;;7.18;;
50417;SDS011;36346;48.280;14.292;2023-06-24T07:42:18;7.11;;;7.11;;
50417;SDS011;36346;48.280;14.292;2023-06-24T07:44:47;7.12;;;7.12;;
50417;SDS011;36346;48.280;14.292;2023-06-24T07:47:19;6.81;;;6.81;;
50417;SDS011;36346;48.280;14.292;2023-06-24T07:49:47;6.75;;;6.75;;
50417;SDS011;36346;48.280;14.292;2023-06-24T07:52:15;7.01;;;7.01;;
50417;SDS011;36346;48.280;14.292;2023-06-24T07:54:43;7.01;;;7.01;;
50417;SDS011;36346;48.280;14.292;2023-06-24T07:57:11;7.15;;;7.15;;
50417;SDS011;36346;48.280;14.292;2023-06-24T07:59:38;7.19;;;7.19;;
50417;SDS011;36346;48.280;14.292;2023-06-24T08:02:06;7.23;;;7.23;;
50417;SDS011;36346;48.280;14.292;2023-06-24T08:04:34;6.99;;;6.99;;
50417;SDS011;36346;48.280;14.292;2023-06-24T08:07:03;6.93;;;6.93;;
50417;SDS011;36346;48.280;14.292;2023-06-24T08:09:32;6.86;;;6.86;;
50417;SDS011;36346;48.280;14.292;2023-06-24T08:12:00;6.80;;;6.80;;
50417;SDS011;36346;48.280;14.292;2023-06-24T08:14:28;7.09;;;7.09;;
50417;SDS011;36346;48.280;14.292;2023-06-24T08:16:56;7.24;;;7.24;;
50417;SDS011;36346;48.280;14.292;2023-06-24T08:19:24;7.29;;;7.29;;
50417;SDS011;36346;48.280;14.292;2023-06-24T08:21:51;6.92;;;6.92;;
50417;SDS011;36346;48.280;14.292;2023-06-24T08:24:19;8.25;;;8.25;;
50417;SDS011;36346;48.280;14.292;2023-06-24T08:26:47;7.58;;;7.58;;
50417;SDS011;36346;48.280;14.292;2023-06-24T08:29:15;6.75;;;6.75;;
50417;SDS011;36346;48.280;14.292;2023-06-24T08:31:43;8.05;;;8.05;;
50417;SDS011;36346;48.280;14.292;2023-06-24T08:34:11;8.95;;;8.95;;
50417;SDS011;36346;48.280;14.292;2023-06-24T08:36:39;9.12;;;9.12;;
50417;SDS011;36346;48.280;14.292;2023-06-24T08:39:07;7.08;;;7.08;;
50417;SDS011;36346;48.280;14.292;2023-06-24T08:41:35;7.56;;;7.56;;
50417;SDS011;36346;48.280;14.292;2023-06-24T08:44:04;7.30;;;7.30;;
50417;SDS011;36346;48.280;14.292;2023-06-24T08:46:32;7.55;;;7.55;;
50417;SDS011;36346;48.280;14.292;2023-06-24T08:49:06;7.35;;;7.35;;
50417;SDS011;36346;48.280;14.292;2023-06-24T08:52:02;7.23;;;7.23;;
50417;SDS011;36346;48.280;14.292;2023-06-24T08:54:34;7.09;;;7.09;;
50417;SDS011;36346;48.280;14.292;2023-06-24T08:57:03;6.95;;;6.95;;
50417;SDS011;36346;48.280;14.292;2023-06-24T08:59:34;7.15;;;7.15;;
50417;SDS011;36346;48.280;14.292;2023-06-24T09:02:02;6.72;;;6.72;;
50417;SDS011;36346;48.280;14.292;2023-06-24T09:04:30;6.95;;;6.95;;
50417;SDS011;36346;48.280;14.292;2023-06-24T09:06:58;8.64;;;8.64;;
50417;SDS011;36346;48.280;14.292;2023-06-24T09:09:26;6.66;;;6.66;;
50417;SDS011;36346;48.280;14.292;2023-06-24T09:11:59;7.01;;;7.01;;
50417;SDS011;36346;48.280;14.292;2023-06-24T09:14:29;6.43;;;6.43;;
50417;SDS011;36346;48.280;14.292;2023-06-24T09:17:00;6.87;;;6.87;;
50417;SDS011;36346;48.280;14.292;2023-06-24T09:19:29;6.88;;;6.88;;
50417;SDS011;36346;48.280;14.292;2023-06-24T09:22:01;7.20;;;7.20;;
50417;SDS011;36346;48.280;14.292;2023-06-24T09:24:31;6.58;;;6.58;;
50417;SDS011;36346;48.280;14.292;2023-06-24T09:27:02;8.16;;;8.16;;
50417;SDS011;36346;48.280;14.292;2023-06-24T09:29:32;6.74;;;6.74;;
50417;SDS011;36346;48.280;14.292;2023-06-24T09:32:04;6.58;;;6.58;;
50417;SDS011;36346;48.280;14.292;2023-06-24T09:34:33;6.95;;;6.95;;
50417;SDS011;36346;48.280;14.292;2023-06-24T09:37:02;6.81;;;6.81;;
50417;SDS011;36346;48.280;14.292;2023-06-24T09:39:39;6.31;;;6.31;;
50417;SDS011;36346;48.280;14.292;2023-06-24T09:42:07;6.55;;;6.55;;
50417;SDS011;36346;48.280;14.292;2023-06-24T09:44:35;6.43;;;6.43;;
50417;SDS011;36346;48.280;14.292;2023-06-24T09:47:04;6.38;;;6.38;;
50417;SDS011;36346;48.280;14.292;2023-06-24T09:49:32;6.31;;;6.31;;
50417;SDS011;36346;48.280;14.292;2023-06-24T09:51:59;6.06;;;6.06;;
50417;SDS011;36346;48.280;14.292;2023-06-24T09:54:32;6.66;;;6.66;;
50417;SDS011;36346;48.280;14.292;2023-06-24T09:57:02;6.10;;;6.10;;
50417;SDS011;36346;48.280;14.292;2023-06-24T09:59:31;6.53;;;6.53;;
50417;SDS011;36346;48.280;14.292;2023-06-24T10:02:02;6.51;;;6.51;;
50417;SDS011;36346;48.280;14.292;2023-06-24T10:04:31;7.17;;;7.17;;
50417;SDS011;36346;48.280;14.292;2023-06-24T10:07:00;7.05;;;7.05;;
50417;SDS011;36346;48.280;14.292;2023-06-24T10:09:30;7.73;;;7.73;;
50417;SDS011;36346;48.280;14.292;2023-06-24T10:11:58;6.68;;;6.68;;
50417;SDS011;36346;48.280;14.292;2023-06-24T10:14:26;7.32;;;7.32;;
50417;SDS011;36346;48.280;14.292;2023-06-24T10:17:03;7.49;;;7.49;;
50417;SDS011;36346;48.280;14.292;2023-06-24T10:19:37;7.92;;;7.92;;
50417;SDS011;36346;48.280;14.292;2023-06-24T10:22:07;7.94;;;7.94;;
50417;SDS011;36346;48.280;14.292;2023-06-24T10:24:40;6.62;;;6.62;;
50417;SDS011;36346;48.280;14.292;2023-06-24T10:27:15;6.38;;;6.38;;
50417;SDS011;36346;48.280;14.292;2023-06-24T10:29:45;6.56;;;6.56;;
50417;SDS011;36346;48.280;14.292;2023-06-24T10:32:15;6.40;;;6.40;;
50417;SDS011;36346;48.280;14.292;2023-06-24T10:34:55;6.36;;;6.36;;
50417;SDS011;36346;48.280;14.292;2023-06-24T10:37:25;6.20;;;6.20;;
50417;SDS011;36346;48.280;14.292;2023-06-24T10:39:54;5.89;;;5.89;;
50417;SDS011;36346;48.280;14.292;2023-06-24T10:44:58;5.39;;;5.39;;
50417;SDS011;36346;48.280;14.292;2023-06-24T10:47:28;5.24;;;5.24;;
50417;SDS011;36346;48.280;14.292;2023-06-24T10:49:57;5.14;;;5.14;;
50417;SDS011;36346;48.280;14.292;2023-06-24T10:52:25;5.23;;;5.23;;
50417;SDS011;36346;48.280;14.292;2023-06-24T10:54:53;5.38;;;5.38;;
50417;SDS011;36346;48.280;14.292;2023-06-24T10:57:25;5.52;;;5.52;;
50417;SDS011;36346;48.280;14.292;2023-06-24T10:59:55;5.59;;;5.58;;
50417;SDS011;36346;48.280;14.292;2023-06-24T11:02:24;5.52;;;5.52;;
50417;SDS011;36346;48.280;14.292;2023-06-24T11:04:55;5.83;;;5.83;;
50417;SDS011;36346;48.280;14.292;2023-06-24T11:07:26;5.45;;;5.45;;
50417;SDS011;36346;48.280;14.292;2023-06-24T11:09:56;5.22;;;5.22;;
50417;SDS011;36346;48.280;14.292;2023-06-24T11:12:35;5.36;;;5.33;;
50417;SDS011;36346;48.280;14.292;2023-06-24T11:15:08;5.57;;;5.57;;
50417;SDS011;36346;48.280;14.292;2023-06-24T11:17:38;5.36;;;5.36;;
50417;SDS011;36346;48.280;14.292;2023-06-24T11:20:08;6.19;;;6.19;;
50417;SDS011;36346;48.280;14.292;2023-06-24T11:22:40;5.22;;;5.22;;
50417;SDS011;36346;48.280;14.292;2023-06-24T11:25:15;5.30;;;5.30;;
50417;SDS011;36346;48.280;14.292;2023-06-24T11:27:43;5.53;;;5.53;;
50417;SDS011;36346;48.280;14.292;2023-06-24T11:30:12;5.90;;;5.90;;
50417;SDS011;36346;48.280;14.292;2023-06-24T11:32:43;5.79;;;5.79;;
50417;SDS011;36346;48.280;14.292;2023-06-24T11:35:12;5.64;;;5.64;;
50417;SDS011;36346;48.280;14.292;2023-06-24T11:37:43;5.75;;;5.75;;
50417;SDS011;36346;48.280;14.292;2023-06-24T11:40:13;5.21;;;5.21;;
50417;SDS011;36346;48.280;14.292;2023-06-24T11:42:43;5.90;;;5.90;;
50417;SDS011;36346;48.280;14.292;2023-06-24T11:45:13;6.08;;;6.08;;
50417;SDS011;36346;48.280;14.292;2023-06-24T11:47:43;5.46;;;5.46;;
50417;SDS011;36346;48.280;14.292;2023-06-24T11:50:11;5.77;;;5.77;;
50417;SDS011;36346;48.280;14.292;2023-06-24T11:52:40;5.90;;;5.90;;
50417;SDS011;36346;48.280;14.292;2023-06-24T11:55:12;5.54;;;5.54;;
50417;SDS011;36346;48.280;14.292;2023-06-24T11:57:56;5.17;;;5.17;;
50417;SDS011;36346;48.280;14.292;2023-06-24T12:00:27;5.65;;;5.65;;
50417;SDS011;36346;48.280;14.292;2023-06-24T12:02:57;6.63;;;6.63;;
50417;SDS011;36346;48.280;14.292;2023-06-24T12:05:31;6.04;;;6.04;;
50417;SDS011;36346;48.280;14.292;2023-06-24T12:08:07;5.80;;;5.80;;
50417;SDS011;36346;48.280;14.292;2023-06-24T12:10:38;5.57;;;5.57;;
50417;SDS011;36346;48.280;14.292;2023-06-24T12:13:07;7.01;;;7.01;;
50417;SDS011;36346;48.280;14.292;2023-06-24T12:15:36;11.27;;;11.26;;
50417;SDS011;36346;48.280;14.292;2023-06-24T12:18:04;7.43;;;7.43;;
50417;SDS011;36346;48.280;14.292;2023-06-24T12:20:35;6.62;;;6.62;;
50417;SDS011;36346;48.280;14.292;2023-06-24T12:23:05;7.68;;;7.68;;
50417;SDS011;36346;48.280;14.292;2023-06-24T12:25:34;7.61;;;7.60;;
50417;SDS011;36346;48.280;14.292;2023-06-24T12:28:02;6.52;;;6.52;;
50417;SDS011;36346;48.280;14.292;2023-06-24T12:30:30;6.04;;;6.04;;
50417;SDS011;36346;48.280;14.292;2023-06-24T12:32:58;6.03;;;6.03;;
50417;SDS011;36346;48.280;14.292;2023-06-24T12:35:27;5.91;;;5.91;;
50417;SDS011;36346;48.280;14.292;2023-06-24T12:37:56;5.91;;;5.91;;
50417;SDS011;36346;48.280;14.292;2023-06-24T12:40:25;5.53;;;5.53;;
50417;SDS011;36346;48.280;14.292;2023-06-24T12:42:53;5.92;;;5.92;;
50417;SDS011;36346;48.280;14.292;2023-06-24T12:45:22;6.21;;;6.21;;
50417;SDS011;36346;48.280;14.292;2023-06-24T12:47:51;6.25;;;6.25;;
50417;SDS011;36346;48.280;14.292;2023-06-24T12:50:20;6.10;;;6.10;;
50417;SDS011;36346;48.280;14.292;2023-06-24T12:52:49;6.29;;;6.29;;
50417;SDS011;36346;48.280;14.292;2023-06-24T12:55:17;6.41;;;6.41;;
50417;SDS011;36346;48.280;14.292;2023-06-24T12:57:45;6.35;;;6.35;;
50417;SDS011;36346;48.280;14.292;2023-06-24T13:00:13;6.10;;;6.10;;
50417;SDS011;36346;48.280;14.292;2023-06-24T13:02:42;5.86;;;5.86;;
50417;SDS011;36346;48.280;14.292;2023-06-24T13:05:10;6.62;;;6.62;;
50417;SDS011;36346;48.280;14.292;2023-06-24T13:07:38;7.24;;;7.24;;
50417;SDS011;36346;48.280;14.292;2023-06-24T13:10:06;5.95;;;5.95;;
50417;SDS011;36346;48.280;14.292;2023-06-24T13:12:35;6.65;;;6.65;;
50417;SDS011;36346;48.280;14.292;2023-06-24T13:15:05;5.46;;;5.46;;
50417;SDS011;36346;48.280;14.292;2023-06-24T13:17:33;5.45;;;5.45;;
50417;SDS011;36346;48.280;14.292;2023-06-24T13:20:01;5.01;;;5.01;;
50417;SDS011;36346;48.280;14.292;2023-06-24T13:22:32;5.23;;;5.23;;
50417;SDS011;36346;48.280;14.292;2023-06-24T13:25:00;5.68;;;5.68;;
50417;SDS011;36346;48.280;14.292;2023-06-24T13:27:28;5.38;;;5.38;;
50417;SDS011;36346;48.280;14.292;2023-06-24T13:29:56;4.69;;;4.69;;
50417;SDS011;36346;48.280;14.292;2023-06-24T13:32:24;4.28;;;4.28;;
50417;SDS011;36346;48.280;14.292;2023-06-24T13:34:52;4.31;;;4.31;;
50417;SDS011;36346;48.280;14.292;2023-06-24T13:37:20;4.16;;;4.16;;
50417;SDS011;36346;48.280;14.292;2023-06-24T13:39:48;3.99;;;3.99;;
50417;SDS011;36346;48.280;14.292;2023-06-24T13:42:16;3.96;;;3.96;;
50417;SDS011;36346;48.280;14.292;2023-06-24T13:44:44;4.11;;;4.11;;
50417;SDS011;36346;48.280;14.292;2023-06-24T13:47:12;3.96;;;3.96;;
50417;SDS011;36346;48.280;14.292;2023-06-24T13:49:41;4.58;;;4.58;;
50417;SDS011;36346;48.280;14.292;2023-06-24T13:52:09;4.89;;;4.89;;
50417;SDS011;36346;48.280;14.292;2023-06-24T13:54:36;4.12;;;4.12;;
50417;SDS011;36346;48.280;14.292;2023-06-24T13:57:04;4.34;;;4.34;;
50417;SDS011;36346;48.280;14.292;2023-06-24T13:59:32;4.20;;;4.20;;
50417;SDS011;36346;48.280;14.292;2023-06-24T14:02:00;4.36;;;4.36;;
50417;SDS011;36346;48.280;14.292;2023-06-24T14:04:28;4.65;;;4.65;;
50417;SDS011;36346;48.280;14.292;2023-06-24T14:06:56;4.74;;;4.74;;
50417;SDS011;36346;48.280;14.292;2023-06-24T14:09:24;3.96;;;3.96;;
50417;SDS011;36346;48.280;14.292;2023-06-24T14:11:52;3.85;;;3.85;;
50417;SDS011;36346;48.280;14.292;2023-06-24T14:14:20;3.98;;;3.98;;
50417;SDS011;36346;48.280;14.292;2023-06-24T14:16:49;4.14;;;4.14;;
50417;SDS011;36346;48.280;14.292;2023-06-24T14:19:16;4.43;;;4.43;;
50417;SDS011;36346;48.280;14.292;2023-06-24T14:21:45;4.50;;;4.50;;
50417;SDS011;36346;48.280;14.292;2023-06-24T14:24:13;4.41;;;4.41;;
50417;SDS011;36346;48.280;14.292;2023-06-24T14:26:43;4.23;;;4.23;;
50417;SDS011;36346;48.280;14.292;2023-06-24T14:29:12;4.65;;;4.65;;
50417;SDS011;36346;48.280;14.292;2023-06-24T14:31:39;4.41;;;4.41;;
50417;SDS011;36346;48.280;14.292;2023-06-24T14:34:07;4.36;;;4.36;;
50417;SDS011;36346;48.280;14.292;2023-06-24T14:36:36;4.30;;;4.30;;
50417;SDS011;36346;48.280;14.292;2023-06-24T14:39:04;4.37;;;4.37;;
50417;SDS011;36346;48.280;14.292;2023-06-24T14:41:32;3.99;;;3.99;;
50417;SDS011;36346;48.280;14.292;2023-06-24T14:44:00;4.45;;;4.45;;
50417;SDS011;36346;48.280;14.292;2023-06-24T14:46:28;4.28;;;4.28;;
50417;SDS011;36346;48.280;14.292;2023-06-24T14:48:55;4.37;;;4.37;;
50417;SDS011;36346;48.280;14.292;2023-06-24T14:51:24;4.36;;;4.36;;
50417;SDS011;36346;48.280;14.292;2023-06-24T14:53:55;4.85;;;4.85;;
50417;SDS011;36346;48.280;14.292;2023-06-24T14:56:23;4.46;;;4.46;;
50417;SDS011;36346;48.280;14.292;2023-06-24T14:58:51;4.41;;;4.41;;
50417;SDS011;36346;48.280;14.292;2023-06-24T15:01:19;4.41;;;4.41;;
50417;SDS011;36346;48.280;14.292;2023-06-24T15:03:47;4.56;;;4.56;;